Time;durP1;ratioP1;P1;durP2;ratioP2;P2;SDS_P1;SDS_P2;PMS_P1;PMS_P2;Temp;Humidity;BMP_temperature;BMP_pressure;BME280_temperature;BME280_humidity;BME280_pressure;Samples;Min_cycle;Max_cycle;Signal;HPM_P1;HPM_P2
2023/08/07 00:02:00;;;;;;;2.72;1.20;;;;;;;16.27;67.62;94256.16;5093526;28;20106;-74
2023/08/07 00:04:26;;;;;;;1.80;1.20;;;;;;;16.38;67.67;94254.91;5112146;28;20390;-74
2023/08/07 00:06:51;;;;;;;1.83;1.10;;;;;;;16.15;68.51;94250.47;5111445;28;20032;-73
2023/08/07 00:09:17;;;;;;;2.30;1.27;;;;;;;15.86;69.37;94245.94;5110429;28;20030;-74
2023/08/07 00:11:42;;;;;;;2.58;1.25;;;;;;;15.91;69.56;94253.25;5110776;28;20054;-73
2023/08/07 00:14:08;;;;;;;2.08;1.27;;;;;;;15.40;71.26;94251.03;5110188;28;20049;-73
2023/08/07 00:16:33;;;;;;;1.70;1.17;;;;;;;15.55;70.67;94257.19;5098900;28;20035;-73
2023/08/07 00:18:58;;;;;;;2.42;1.40;;;;;;;15.40;70.75;94237.94;5111988;27;20026;-73
2023/08/07 00:21:24;;;;;;;2.30;1.38;;;;;;;15.44;70.86;94247.09;5111313;28;20031;-73
2023/08/07 00:23:49;;;;;;;2.03;1.40;;;;;;;15.47;70.70;94243.34;5114058;28;20035;-74
2023/08/07 00:26:15;;;;;;;1.80;1.10;;;;;;;15.59;70.27;94242.75;5076760;28;20040;-74
2023/08/07 00:28:41;;;;;;;1.80;1.30;;;;;;;15.53;70.21;94238.22;5111249;28;20051;-74
2023/08/07 00:31:06;;;;;;;2.17;1.40;;;;;;;15.60;70.27;94249.66;5093318;28;20390;-73
2023/08/07 00:33:31;;;;;;;2.00;1.40;;;;;;;15.42;70.71;94238.59;5093096;28;20024;-74
2023/08/07 00:35:57;;;;;;;2.40;1.20;;;;;;;15.64;70.56;94252.72;5117876;28;20034;-74
2023/08/07 00:38:22;;;;;;;1.75;1.20;;;;;;;15.67;70.17;94249.78;5130122;27;20050;-74
2023/08/07 00:40:48;;;;;;;2.10;1.40;;;;;;;15.72;70.15;94262.38;5112107;28;20554;-74
2023/08/07 00:43:13;;;;;;;2.15;1.33;;;;;;;15.76;69.86;94266.28;5128671;28;20087;-73
2023/08/07 00:45:42;;;;;;;2.33;1.42;;;;;;;15.71;70.02;94264.19;5130777;28;20031;-73
2023/08/07 00:48:08;;;;;;;1.88;1.40;;;;;;;15.80;69.71;94278.06;5090632;28;20028;-73
2023/08/07 00:50:33;;;;;;;2.20;1.38;;;;;;;15.79;69.75;94279.03;5120106;27;20059;-73
2023/08/07 00:52:59;;;;;;;3.05;1.30;;;;;;;15.90;70.01;94283.88;5121448;27;20072;-74
2023/08/07 00:55:25;;;;;;;3.60;1.40;;;;;;;15.87;69.75;94278.97;5117534;27;20027;-74
2023/08/07 00:57:51;;;;;;;1.80;1.30;;;;;;;15.67;70.18;94278.56;5116528;27;20026;-74
2023/08/07 01:00:16;;;;;;;3.35;1.50;;;;;;;15.59;70.28;94271.56;5126507;27;20039;-74
2023/08/07 01:02:42;;;;;;;2.20;1.40;;;;;;;15.67;70.38;94293.47;5134310;27;20031;-74
2023/08/07 01:05:07;;;;;;;1.90;1.30;;;;;;;15.80;69.19;94285.91;5134363;27;20031;-74
2023/08/07 01:07:33;;;;;;;2.58;1.42;;;;;;;15.53;70.21;94297.63;5124809;27;20397;-73
2023/08/07 01:10:02;;;;;;;2.10;1.40;;;;;;;14.97;72.26;94300.22;5132621;27;20473;-74
2023/08/07 01:12:30;;;;;;;2.10;1.50;;;;;;;15.12;71.79;94300.34;5135404;27;20034;-73
2023/08/07 01:15:08;;;;;;;3.97;2.13;;;;;;;15.23;71.98;94312.25;5134183;27;20019;-74
2023/08/07 01:17:34;;;;;;;2.10;1.60;;;;;;;15.27;71.99;94292.66;5094735;28;20035;-74
2023/08/07 01:20:00;;;;;;;2.30;1.63;;;;;;;15.37;71.75;94303.72;5096739;28;20036;-73
2023/08/07 01:22:25;;;;;;;3.10;1.30;;;;;;;15.33;71.86;94302.44;5113445;27;20034;-73
2023/08/07 01:24:50;;;;;;;2.13;1.58;;;;;;;15.28;71.94;94305.53;5096336;28;20023;-73
2023/08/07 01:27:19;;;;;;;3.55;1.77;;;;;;;15.44;71.65;94299.44;5096835;27;20159;-73
2023/08/07 01:30:29;;;;;;;2.13;1.52;;;;;;;15.48;71.16;94305.16;5114384;28;20110;-74
2023/08/07 01:33:17;;;;;;;3.45;1.90;;;;;;;15.38;71.39;94300.94;5113261;28;20051;-73
2023/08/07 01:35:53;;;;;;;2.97;1.52;;;;;;;15.32;71.52;94304.25;5113366;27;20060;-74
2023/08/07 01:38:18;;;;;;;2.83;1.45;;;;;;;15.34;71.69;94317.13;5114172;28;20084;-73
2023/08/07 01:40:44;;;;;;;3.63;1.90;;;;;;;15.14;72.18;94304.44;5096028;28;20245;-74
2023/08/07 01:43:09;;;;;;;2.47;1.70;;;;;;;15.27;71.62;94322.22;5127293;27;20467;-74
2023/08/07 01:45:34;;;;;;;2.25;1.70;;;;;;;15.07;72.54;94302.63;5102468;28;20459;-74
2023/08/07 01:48:00;;;;;;;2.67;2.00;;;;;;;15.17;72.02;94313.75;5112997;28;20015;-74
2023/08/07 01:50:25;;;;;;;2.45;1.55;;;;;;;14.96;72.34;94303.84;5097500;27;20047;-73
2023/08/07 01:52:50;;;;;;;2.70;1.92;;;;;;;15.12;71.90;94313.44;5131433;27;20015;-73
2023/08/07 01:55:17;;;;;;;2.53;1.90;;;;;;;15.24;71.44;94311.25;5113495;27;20421;-73
2023/08/07 01:57:42;;;;;;;2.65;1.73;;;;;;;15.25;71.26;94305.06;5112620;28;20030;-73
2023/08/07 02:00:08;;;;;;;2.10;1.60;;;;;;;15.16;71.79;94310.31;5112467;28;20499;-74
2023/08/07 02:02:34;;;;;;;2.95;2.03;;;;;;;15.06;71.87;94314.91;5108154;27;20036;-73
2023/08/07 02:05:00;;;;;;;2.95;1.80;;;;;;;15.04;72.00;94316.88;5113931;28;20126;-73
2023/08/07 02:07:25;;;;;;;2.47;2.00;;;;;;;15.15;71.71;94321.75;5129284;27;20480;-73
2023/08/07 02:09:51;;;;;;;3.38;1.98;;;;;;;14.94;72.47;94321.47;5115739;27;20030;-73
2023/08/07 02:12:16;;;;;;;2.40;2.00;;;;;;;14.80;72.59;94296.00;5131579;27;20023;-74
2023/08/07 02:14:41;;;;;;;2.58;2.20;;;;;;;14.82;72.48;94314.94;5116026;27;20042;-74
2023/08/07 02:17:07;;;;;;;2.75;1.88;;;;;;;14.70;72.59;94312.66;5130744;27;20031;-74
2023/08/07 02:19:32;;;;;;;2.90;2.40;;;;;;;14.63;73.12;94318.72;5132664;27;20027;-75
2023/08/07 02:21:58;;;;;;;2.90;2.22;;;;;;;14.53;73.42;94316.25;5103637;28;20032;-74
2023/08/07 02:24:23;;;;;;;2.50;2.22;;;;;;;14.69;73.15;94334.56;5095714;28;20031;-75
2023/08/07 02:26:48;;;;;;;2.38;1.75;;;;;;;14.87;72.88;94344.03;5095444;28;20477;-74
2023/08/07 02:29:14;;;;;;;2.63;2.10;;;;;;;14.76;73.05;94339.94;5111472;27;20420;-75
2023/08/07 02:31:39;;;;;;;2.88;2.30;;;;;;;14.09;74.83;94334.78;5113947;27;20027;-75
2023/08/07 02:34:04;;;;;;;3.60;2.53;;;;;;;14.24;74.98;94341.03;5124910;27;20028;-74
2023/08/07 02:36:30;;;;;;;3.83;2.38;;;;;;;14.26;74.84;94344.31;5117803;27;20076;-75
2023/08/07 02:38:55;;;;;;;2.95;2.45;;;;;;;14.13;74.62;94330.88;5131178;27;20035;-75
2023/08/07 02:41:21;;;;;;;3.97;2.47;;;;;;;14.17;75.14;94347.88;5132541;27;20540;-75
2023/08/07 02:43:46;;;;;;;3.72;2.42;;;;;;;14.13;74.85;94330.88;5111864;27;20027;-74
2023/08/07 02:46:11;;;;;;;2.75;2.13;;;;;;;14.59;74.06;94346.16;5113210;28;20039;-74
2023/08/07 02:48:37;;;;;;;3.03;2.30;;;;;;;14.67;73.81;94344.34;5122503;27;20418;-73
2023/08/07 02:51:02;;;;;;;2.83;2.30;;;;;;;14.56;73.70;94344.69;5132266;27;20035;-73
2023/08/07 02:53:28;;;;;;;2.63;1.98;;;;;;;14.57;73.68;94345.50;5114295;27;20041;-73
2023/08/07 02:55:53;;;;;;;2.60;2.20;;;;;;;14.49;72.74;94331.44;5130239;27;20031;-73
2023/08/07 02:58:19;;;;;;;2.78;2.25;;;;;;;14.55;73.34;94358.75;5098288;28;20046;-73
2023/08/07 03:00:44;;;;;;;3.15;2.13;;;;;;;14.70;73.78;94364.94;5111553;28;20465;-74
2023/08/07 03:03:09;;;;;;;3.15;2.40;;;;;;;14.71;74.42;94361.38;5117674;27;20027;-74
2023/08/07 03:05:35;;;;;;;2.92;2.50;;;;;;;14.63;74.73;94363.97;5085382;27;20077;-74
2023/08/07 03:08:00;;;;;;;2.78;2.40;;;;;;;14.68;74.92;94361.69;5119486;27;20031;-74
2023/08/07 03:10:26;;;;;;;2.78;2.33;;;;;;;14.71;75.22;94363.16;5098034;28;20224;-74
2023/08/07 03:12:51;;;;;;;2.85;2.17;;;;;;;14.68;75.35;94358.25;5077360;28;20039;-74
2023/08/07 03:15:16;;;;;;;3.83;2.88;;;;;;;14.73;75.44;94363.81;5110662;27;20467;-74
2023/08/07 03:17:42;;;;;;;3.28;2.78;;;;;;;14.88;74.79;94371.81;5112518;28;20056;-73
2023/08/07 03:20:09;;;;;;;3.15;2.65;;;;;;;14.90;74.85;94375.06;5113071;27;20027;-73
2023/08/07 03:22:34;;;;;;;2.95;2.58;;;;;;;15.04;74.76;94377.03;5119530;27;20058;-73
2023/08/07 03:25:00;;;;;;;3.40;2.78;;;;;;;15.02;73.91;94375.59;5130840;27;20491;-73
2023/08/07 03:27:25;;;;;;;3.33;2.78;;;;;;;14.91;74.71;94376.72;5131206;27;20030;-73
2023/08/07 03:29:50;;;;;;;3.30;2.88;;;;;;;15.12;74.54;94384.88;5102028;28;20019;-74
2023/08/07 03:32:16;;;;;;;4.25;3.25;;;;;;;14.94;74.98;94376.41;5111376;27;20130;-73
2023/08/07 03:34:42;;;;;;;3.65;2.70;;;;;;;15.10;74.86;94386.84;5092763;28;20023;-73
2023/08/07 03:37:07;;;;;;;2.90;2.58;;;;;;;15.31;74.69;94393.34;5111655;27;20417;-74
2023/08/07 03:39:33;;;;;;;3.72;2.70;;;;;;;15.30;74.61;94389.13;5096711;27;20088;-74
2023/08/07 03:41:58;;;;;;;2.95;2.30;;;;;;;15.46;74.39;94391.72;5099509;27;20171;-74
2023/08/07 03:44:23;;;;;;;2.58;2.08;;;;;;;15.37;73.94;94388.25;5121162;27;20031;-74
2023/08/07 03:46:50;;;;;;;3.42;2.50;;;;;;;15.36;73.97;94396.28;5111781;27;20035;-74
2023/08/07 03:49:16;;;;;;;3.42;2.60;;;;;;;15.33;74.35;94401.88;5130560;27;20047;-74
2023/08/07 03:51:42;;;;;;;3.40;2.72;;;;;;;15.24;74.90;94393.22;5121886;27;20562;-74
2023/08/07 03:54:08;;;;;;;3.05;2.60;;;;;;;15.28;74.86;94409.41;5124492;27;20043;-74
2023/08/07 03:56:36;;;;;;;3.50;2.88;;;;;;;15.39;73.24;94416.91;5132412;27;20072;-74
2023/08/07 03:59:02;;;;;;;4.00;2.60;;;;;;;15.32;73.52;94416.75;5113868;27;20315;-74
2023/08/07 04:01:27;;;;;;;3.20;2.70;;;;;;;15.51;74.39;94418.19;5123367;27;20023;-74
2023/08/07 04:03:53;;;;;;;4.00;2.70;;;;;;;15.69;73.97;94431.13;5102291;28;20031;-74
2023/08/07 04:06:18;;;;;;;2.90;2.60;;;;;;;15.58;73.12;94427.00;5091478;28;20023;-74
2023/08/07 04:08:47;;;;;;;3.40;2.83;;;;;;;15.69;72.99;94418.03;5107966;28;20039;-74
2023/08/07 04:11:12;;;;;;;2.90;2.60;;;;;;;15.95;72.71;94425.63;5100247;28;20127;-73
2023/08/07 04:13:38;;;;;;;3.10;2.50;;;;;;;15.94;71.49;94410.09;5110182;28;20047;-74
2023/08/07 04:16:04;;;;;;;2.95;2.33;;;;;;;15.89;72.01;94439.41;5113364;28;20015;-74
2023/08/07 04:18:30;;;;;;;2.65;2.30;;;;;;;16.05;71.14;94433.28;5105705;28;20421;-74
2023/08/07 04:20:56;;;;;;;3.33;2.67;;;;;;;16.03;72.18;94427.41;5100783;28;20027;-74
2023/08/07 04:23:21;;;;;;;3.30;2.65;;;;;;;16.10;71.50;94433.56;5130249;27;20042;-74
2023/08/07 04:25:47;;;;;;;3.28;2.70;;;;;;;16.02;71.32;94436.25;5096598;27;20084;-73
2023/08/07 04:28:13;;;;;;;2.83;2.50;;;;;;;15.89;71.71;94434.16;5095954;28;20059;-73
2023/08/07 04:30:38;;;;;;;3.38;2.47;;;;;;;15.88;71.45;94450.88;5117206;27;20407;-73
2023/08/07 04:33:04;;;;;;;3.75;2.78;;;;;;;16.15;71.80;94449.63;5117178;27;20036;-73
2023/08/07 04:35:30;;;;;;;3.05;2.60;;;;;;;16.17;70.35;94444.22;5135906;27;20015;-73
2023/08/07 04:37:55;;;;;;;3.38;2.58;;;;;;;16.25;70.13;94441.56;5131354;27;20485;-73
2023/08/07 04:40:21;;;;;;;2.88;2.50;;;;;;;16.42;68.43;94437.88;5132572;27;20569;-74
2023/08/07 04:42:48;;;;;;;3.88;2.67;;;;;;;16.42;69.08;94443.13;5117277;27;20031;-74
2023/08/07 04:45:14;;;;;;;3.70;2.53;;;;;;;16.18;68.75;94430.13;5111872;27;20469;-73
2023/08/07 04:47:39;;;;;;;2.75;2.10;;;;;;;16.35;66.81;94438.72;5096700;28;20028;-74
2023/08/07 04:50:05;;;;;;;2.97;2.55;;;;;;;16.33;67.14;94449.38;5113613;28;20051;-74
2023/08/07 04:52:30;;;;;;;4.22;2.42;;;;;;;16.39;67.39;94446.09;5096762;28;20047;-74
2023/08/07 04:54:55;;;;;;;5.32;2.97;;;;;;;16.57;67.07;94451.06;5112652;27;20477;-74
2023/08/07 04:57:21;;;;;;;4.22;2.50;;;;;;;16.79;66.97;94444.25;5104623;27;20023;-74
2023/08/07 04:59:46;;;;;;;2.50;2.13;;;;;;;16.73;64.66;94442.28;5128834;27;20023;-74
2023/08/07 05:02:12;;;;;;;3.75;2.15;;;;;;;16.86;64.39;94453.06;5130227;27;20054;-74
2023/08/07 05:04:37;;;;;;;2.80;2.35;;;;;;;17.47;64.09;94439.13;5130161;27;20503;-74
2023/08/07 05:07:03;;;;;;;3.08;2.38;;;;;;;17.84;62.03;94451.44;5114945;27;20035;-74
2023/08/07 05:09:28;;;;;;;2.67;2.38;;;;;;;17.91;61.74;94443.63;5102098;28;20161;-74
2023/08/07 05:11:54;;;;;;;2.58;2.30;;;;;;;18.26;60.79;94439.47;5100436;27;20035;-74
2023/08/07 05:14:19;;;;;;;3.72;2.30;;;;;;;18.58;60.09;94438.22;5118053;27;20393;-74
2023/08/07 05:16:45;;;;;;;3.42;1.88;;;;;;;19.04;58.28;94437.13;5122140;27;20035;-74
2023/08/07 05:19:11;;;;;;;3.78;2.03;;;;;;;19.34;57.02;94440.44;5131907;27;20288;-74
2023/08/07 05:21:36;;;;;;;3.47;1.90;;;;;;;19.61;55.98;94423.00;5142039;27;20408;-74
2023/08/07 05:24:02;;;;;;;2.38;1.90;;;;;;;19.80;54.47;94426.81;5110067;28;20024;-75
2023/08/07 05:26:29;;;;;;;2.55;1.95;;;;;;;19.98;54.05;94419.22;5107347;27;20031;-74
2023/08/07 05:29:01;;;;;;;2.67;1.90;;;;;;;20.28;52.80;94425.06;5107384;27;20030;-76
2023/08/07 05:31:26;;;;;;;2.47;2.03;;;;;;;20.05;52.93;94432.44;5125283;27;20388;-76
2023/08/07 05:33:51;;;;;;;2.08;1.73;;;;;;;20.26;52.70;94415.72;5130777;27;20455;-75
2023/08/07 05:36:17;;;;;;;2.97;1.95;;;;;;;20.43;52.02;94422.28;5111566;28;20076;-76
2023/08/07 05:38:42;;;;;;;2.28;1.95;;;;;;;20.51;51.77;94413.38;5088112;28;20116;-76
2023/08/07 05:41:11;;;;;;;2.92;1.90;;;;;;;20.70;51.19;94420.59;5122707;27;20029;-77
2023/08/07 05:43:36;;;;;;;3.78;1.70;;;;;;;20.86;49.70;94415.94;5116700;27;20500;-79
2023/08/07 05:46:01;;;;;;;2.53;1.75;;;;;;;20.92;49.85;94415.97;5095467;27;20042;-76
2023/08/07 05:48:27;;;;;;;3.05;1.80;;;;;;;20.98;49.85;94420.44;5119449;27;20055;-77
2023/08/07 05:50:53;;;;;;;3.15;1.77;;;;;;;21.39;49.04;94427.41;5111870;27;20398;-77
2023/08/07 05:53:18;;;;;;;2.47;1.95;;;;;;;21.44;48.62;94428.63;5127876;27;20030;-77
2023/08/07 05:55:43;;;;;;;129.38;20.83;;;;;;;21.58;49.40;94438.19;5153318;27;20029;-74
2023/08/07 05:58:09;;;;;;;3.83;2.08;;;;;;;21.75;48.56;94426.16;5106511;27;20615;-76
2023/08/07 06:00:34;;;;;;;2.70;1.75;;;;;;;21.73;48.05;94428.22;5130361;27;20553;-76
2023/08/07 06:03:00;;;;;;;335.88;49.15;;;;;;;21.76;48.02;94427.00;5123729;27;20031;-80
2023/08/07 06:05:25;;;;;;;22.65;2.78;;;;;;;21.67;47.48;94422.94;5115486;27;20031;-78
2023/08/07 06:07:50;;;;;;;3.83;2.15;;;;;;;21.65;48.21;94423.16;5121437;27;20024;-77
2023/08/07 06:10:16;;;;;;;7.88;1.98;;;;;;;21.49;48.54;94397.94;5132306;27;20554;-76
2023/08/07 06:12:41;;;;;;;2.30;1.80;;;;;;;22.08;46.82;94425.31;5131139;27;20036;-75
2023/08/07 06:15:08;;;;;;;3.47;1.80;;;;;;;22.16;46.34;94430.38;5126180;27;20031;-76
2023/08/07 06:17:33;;;;;;;2.30;1.40;;;;;;;22.40;45.67;94422.78;5125545;27;20042;-76
2023/08/07 06:19:59;;;;;;;2.30;1.60;;;;;;;22.41;45.59;94424.44;5106663;27;20054;-73
2023/08/07 06:22:24;;;;;;;2.00;1.48;;;;;;;22.47;45.10;94426.22;5130197;27;20458;-76
2023/08/07 06:24:49;;;;;;;3.97;1.70;;;;;;;22.37;46.57;94417.91;5096191;27;20472;-76
2023/08/07 06:27:15;;;;;;;1.90;1.40;;;;;;;22.39;45.53;94414.03;5126395;27;20100;-74
2023/08/07 06:29:40;;;;;;;2.50;1.33;;;;;;;22.36;46.05;94406.53;5131716;27;20023;-74
2023/08/07 06:32:06;;;;;;;2.95;1.70;;;;;;;22.49;45.49;94405.66;5125953;27;20027;-72
2023/08/07 06:34:32;;;;;;;2.40;1.55;;;;;;;22.13;45.41;94396.41;5126845;27;20130;-71
2023/08/07 06:36:57;;;;;;;2.30;1.60;;;;;;;22.40;44.87;94393.69;5125174;27;20027;-74
2023/08/07 06:39:22;;;;;;;1.90;1.40;;;;;;;22.59;44.73;94402.56;5113202;27;20039;-72
2023/08/07 06:41:48;;;;;;;2.17;1.60;;;;;;;22.63;45.25;94396.63;5132202;27;20050;-74
2023/08/07 06:44:13;;;;;;;2.10;1.38;;;;;;;22.77;43.86;94410.63;5109914;28;20096;-74
2023/08/07 06:46:38;;;;;;;4.65;1.50;;;;;;;22.82;44.22;94410.00;5126533;27;20369;-76
2023/08/07 06:49:04;;;;;;;1.83;1.30;;;;;;;23.17;42.60;94413.84;5105273;28;20059;-81
2023/08/07 06:51:30;;;;;;;2.38;1.40;;;;;;;23.22;42.67;94417.72;5077965;28;20031;-77
2023/08/07 06:53:55;;;;;;;2.85;1.35;;;;;;;23.17;42.49;94408.56;5116098;27;20529;-76
2023/08/07 06:56:21;;;;;;;3.03;1.38;;;;;;;23.29;42.33;94415.81;5118602;27;20034;-78
2023/08/07 06:58:46;;;;;;;13.50;12.13;;;;;;;23.01;41.22;94417.00;5121217;27;20024;-77
2023/08/07 07:01:12;;;;;;;2.47;1.40;;;;;;;22.94;41.49;94410.94;5125475;27;20035;-77
2023/08/07 07:03:37;;;;;;;5.43;1.50;;;;;;;22.72;42.47;94419.19;5128799;27;20105;-76
2023/08/07 07:06:02;;;;;;;1.73;1.20;;;;;;;22.66;42.86;94412.09;5130872;27;20449;-77
2023/08/07 07:08:28;;;;;;;1.80;1.30;;;;;;;22.92;42.02;94415.63;5129296;27;20027;-73
2023/08/07 07:10:53;;;;;;;2.42;1.30;;;;;;;23.11;41.07;94417.38;5130129;27;20096;-74
2023/08/07 07:13:19;;;;;;;1.92;1.30;;;;;;;22.95;41.74;94388.72;5129265;27;20099;-74
2023/08/07 07:15:44;;;;;;;2.40;1.40;;;;;;;23.30;39.63;94390.97;5128532;27;20030;-74
2023/08/07 07:18:09;;;;;;;2.30;1.33;;;;;;;23.49;40.71;94395.28;5123439;27;20034;-74
2023/08/07 07:20:35;;;;;;;2.22;1.33;;;;;;;23.64;39.91;94397.59;5127186;27;20035;-75
2023/08/07 07:23:00;;;;;;;1.48;0.93;;;;;;;23.35;40.00;94399.06;5108368;27;20035;-76
2023/08/07 07:25:26;;;;;;;2.00;1.13;;;;;;;23.03;39.08;94395.63;5127384;27;20023;-76
2023/08/07 07:27:51;;;;;;;1.73;1.10;;;;;;;23.08;39.68;94399.25;5126239;27;20107;-77
2023/08/07 07:30:17;;;;;;;1.65;1.00;;;;;;;23.08;38.17;94404.56;5109050;28;20035;-79
2023/08/07 07:32:42;;;;;;;2.63;1.15;;;;;;;23.06;38.70;94403.13;5110591;28;20052;-78
2023/08/07 07:35:08;;;;;;;1.92;1.17;;;;;;;22.50;39.13;94371.03;5092317;28;20512;-77
2023/08/07 07:37:33;;;;;;;21.58;2.33;;;;;;;22.73;40.03;94407.59;5085854;27;20115;-75
2023/08/07 07:39:59;;;;;;;1.60;1.13;;;;;;;22.49;39.71;94384.50;5110154;28;20032;-75
2023/08/07 07:42:24;;;;;;;1.60;1.10;;;;;;;22.74;41.89;94408.41;5106573;27;20047;-74
2023/08/07 07:44:50;;;;;;;1.60;1.08;;;;;;;23.05;44.82;94404.19;5111861;27;20023;-76
2023/08/07 07:47:16;;;;;;;2.75;1.45;;;;;;;23.57;43.65;94410.13;5123710;27;20038;-77
2023/08/07 07:49:47;;;;;;;3.42;1.27;;;;;;;22.97;41.82;94307.25;5119122;27;20159;-77
2023/08/07 07:52:13;;;;;;;2.33;1.30;;;;;;;23.48;42.88;94408.75;5122029;27;20496;-77
2023/08/07 07:54:38;;;;;;;33.90;9.90;;;;;;;23.62;44.31;94408.44;5130800;27;20027;-79
2023/08/07 07:57:04;;;;;;;3.22;1.40;;;;;;;23.56;43.98;94406.63;5123217;27;20493;-75
2023/08/07 07:59:29;;;;;;;4.03;1.25;;;;;;;23.00;42.44;94407.47;5128245;27;20122;-77
2023/08/07 08:01:55;;;;;;;2.90;1.45;;;;;;;22.69;45.11;94408.22;5128185;27;20034;-76
2023/08/07 08:04:20;;;;;;;1.88;1.30;;;;;;;22.78;40.92;94403.50;5135588;27;20027;-76
2023/08/07 08:06:48;;;;;;;3.03;1.40;;;;;;;22.26;43.68;94399.03;5142420;27;20030;-75
2023/08/07 08:09:13;;;;;;;3.60;1.40;;;;;;;22.61;44.27;94397.88;5136791;27;20035;-77
2023/08/07 08:11:38;;;;;;;1.92;1.27;;;;;;;22.68;44.50;94399.47;5128009;27;20019;-77
2023/08/07 08:14:04;;;;;;;2.70;1.20;;;;;;;22.56;42.39;94393.19;5111376;27;20457;-77
2023/08/07 08:16:29;;;;;;;2.45;1.30;;;;;;;22.95;40.54;94394.84;5121974;27;20053;-80
2023/08/07 08:18:55;;;;;;;2.00;1.13;;;;;;;23.14;41.59;94393.09;5135277;27;20031;-76
2023/08/07 08:21:20;;;;;;;2.25;1.10;;;;;;;23.43;39.15;94393.50;5122183;27;20476;-78
2023/08/07 08:23:46;;;;;;;1.70;1.20;;;;;;;23.31;42.37;94389.91;5130531;27;20785;-75
2023/08/07 08:26:11;;;;;;;2.47;1.38;;;;;;;23.23;42.25;94392.84;5101950;28;20023;-77
2023/08/07 08:28:38;;;;;;;3.22;1.35;;;;;;;23.01;41.41;94369.34;5131639;27;20046;-78
2023/08/07 08:31:03;;;;;;;2.05;1.23;;;;;;;22.97;41.24;94390.16;5108214;27;20023;-81
2023/08/07 08:33:28;;;;;;;2.38;1.45;;;;;;;22.95;42.78;94394.84;5117233;27;20031;-79
2023/08/07 08:35:54;;;;;;;2.05;1.20;;;;;;;23.15;40.67;94391.25;5116755;27;20024;-81
2023/08/07 08:38:21;;;;;;;3.17;1.63;;;;;;;22.89;41.99;94381.63;5110554;28;20050;-80
2023/08/07 08:40:46;;;;;;;2.42;1.35;;;;;;;22.87;41.93;94381.84;5124739;28;20042;-78
2023/08/07 08:43:12;;;;;;;2.28;1.42;;;;;;;23.18;43.37;94367.81;5129856;28;20027;-77
2023/08/07 08:45:37;;;;;;;3.50;1.48;;;;;;;23.20;41.03;94373.69;5100022;28;20028;-77
2023/08/07 08:48:04;;;;;;;1.85;1.30;;;;;;;23.22;39.06;94375.31;5103027;28;20020;-76
2023/08/07 08:50:29;;;;;;;2.15;1.52;;;;;;;23.16;40.87;94343.38;5118276;28;20504;-82
2023/08/07 08:52:55;;;;;;;2.00;1.40;;;;;;;23.81;38.17;94352.81;5125387;27;20281;-78
2023/08/07 08:55:21;;;;;;;2.13;1.35;;;;;;;24.19;37.50;94360.53;5101775;28;20428;-78
2023/08/07 08:57:46;;;;;;;1.70;1.20;;;;;;;24.31;39.66;94371.22;5135537;27;20189;-81
2023/08/07 09:00:21;;;;;;;2.00;1.38;;;;;;;23.83;38.93;94359.50;5145548;27;20023;-78
2023/08/07 09:02:47;;;;;;;2.22;1.30;;;;;;;23.84;39.32;94355.81;5105971;28;20028;-78
2023/08/07 09:05:13;;;;;;;2.30;1.35;;;;;;;23.92;40.01;94356.56;5122808;27;20039;-77
2023/08/07 09:07:39;;;;;;;3.30;1.50;;;;;;;23.43;39.92;94340.50;5112333;28;20036;-76
2023/08/07 09:10:04;;;;;;;21.40;6.10;;;;;;;23.52;39.46;94354.28;5111925;28;20480;-76
2023/08/07 09:12:31;;;;;;;3.42;1.70;;;;;;;23.57;39.60;94334.03;5095374;27;20038;-76
2023/08/07 09:14:58;;;;;;;3.33;1.38;;;;;;;23.75;38.70;94343.88;5113440;27;20038;-76
2023/08/07 09:17:24;;;;;;;3.05;1.60;;;;;;;23.76;36.63;94342.84;5104416;28;20028;-84
2023/08/07 09:19:50;;;;;;;2.33;1.70;;;;;;;24.23;37.85;94344.97;5100731;27;20015;-88
2023/08/07 09:22:15;;;;;;;3.03;2.00;;;;;;;24.06;37.09;94345.56;5116624;27;20508;-86
2023/08/07 09:24:41;;;;;;;3.45;2.53;;;;;;;23.81;37.04;94342.19;5120952;27;20020;-86
2023/08/07 09:27:07;;;;;;;3.60;1.90;;;;;;;24.17;36.38;94348.53;5102821;27;20039;-87
2023/08/07 09:29:33;;;;;;;1.90;1.30;;;;;;;23.72;37.51;94343.53;5118206;27;20033;-84
2023/08/07 09:32:06;;;;;;;2.17;1.55;;;;;;;24.17;37.98;94343.22;5111908;28;20413;-85
2023/08/07 09:34:32;;;;;;;3.33;1.40;;;;;;;24.27;37.33;94348.81;5110880;28;20027;-85
2023/08/07 09:36:57;;;;;;;3.63;1.55;;;;;;;23.99;37.40;94307.72;5112591;28;20024;-85
2023/08/07 09:39:24;;;;;;;1.83;1.30;;;;;;;24.04;36.47;94331.75;5110593;28;20425;-84
2023/08/07 09:41:51;;;;;;;2.35;1.55;;;;;;;24.28;35.88;94329.22;5110888;28;20041;-83
2023/08/07 09:44:16;;;;;;;1.70;1.30;;;;;;;24.31;36.77;94331.41;5110696;28;20035;-83
2023/08/07 09:46:42;;;;;;;3.47;1.40;;;;;;;24.25;36.94;94329.66;5111228;28;20389;-85
2023/08/07 09:49:08;;;;;;;2.05;1.30;;;;;;;24.16;35.88;94326.50;5112628;28;20055;-84
2023/08/07 09:51:46;;;;;;;1.95;1.20;;;;;;;24.64;35.23;94319.59;5112925;28;20023;-84
2023/08/07 09:54:11;;;;;;;1.80;1.15;;;;;;;24.67;36.78;94321.78;5112697;28;20493;-85
2023/08/07 09:56:40;;;;;;;1.63;1.15;;;;;;;24.86;37.15;94331.31;5114209;28;20043;-84
2023/08/07 09:59:06;;;;;;;1.85;1.13;;;;;;;24.86;35.33;94330.50;5112575;28;20035;-84
2023/08/07 10:01:32;;;;;;;2.38;1.30;;;;;;;24.73;34.97;94334.94;5112673;28;20027;-84
2023/08/07 10:03:57;;;;;;;1.63;1.20;;;;;;;24.97;34.28;94327.88;5112162;28;20558;-86
2023/08/07 10:06:23;;;;;;;2.80;1.10;;;;;;;25.16;34.31;94335.81;5112204;28;20053;-85
2023/08/07 10:08:48;;;;;;;3.22;1.40;;;;;;;24.55;34.21;94323.59;5112239;28;20020;-84
2023/08/07 10:11:14;;;;;;;2.35;1.20;;;;;;;25.05;34.17;94315.31;5112334;28;20408;-84
2023/08/07 10:13:40;;;;;;;1.95;1.25;;;;;;;25.14;34.90;94317.41;5112323;28;20093;-86
2023/08/07 10:16:06;;;;;;;5.15;1.40;;;;;;;25.02;35.14;94329.03;5112352;28;20055;-85
2023/08/07 10:18:31;;;;;;;2.00;1.23;;;;;;;24.81;35.15;94317.91;5112187;28;20493;-84
2023/08/07 10:20:57;;;;;;;2.15;1.20;;;;;;;24.67;35.50;94306.66;5112139;28;20043;-84
2023/08/07 10:23:22;;;;;;;2.33;1.20;;;;;;;24.87;35.64;94301.03;5111248;28;20131;-85
2023/08/07 10:25:47;;;;;;;2.13;1.40;;;;;;;24.98;35.37;94320.69;5112064;28;20019;-84
2023/08/07 10:28:14;;;;;;;3.83;1.30;;;;;;;24.97;35.28;94324.41;5111806;28;20031;-85
2023/08/07 10:30:40;;;;;;;3.22;1.38;;;;;;;25.57;34.13;94318.94;5112168;28;20122;-85
2023/08/07 10:33:05;;;;;;;1.65;1.02;;;;;;;25.54;35.28;94322.06;5094997;28;20028;-85
2023/08/07 10:35:32;;;;;;;2.03;1.25;;;;;;;25.33;34.79;94304.84;5113212;28;20031;-85
2023/08/07 10:38:09;;;;;;;4.07;1.77;;;;;;;25.64;35.62;94314.31;5094760;28;20065;-84
2023/08/07 10:41:01;;;;;;;2.22;1.25;;;;;;;25.90;34.79;94319.41;5111891;28;20482;-86
2023/08/07 10:43:27;;;;;;;1.60;1.17;;;;;;;25.91;35.36;94305.03;5112809;28;20489;-85
2023/08/07 10:45:53;;;;;;;3.35;1.20;;;;;;;25.89;34.45;94310.63;5111778;28;20031;-85
2023/08/07 10:48:19;;;;;;;2.03;1.10;;;;;;;25.78;34.00;94306.09;5111177;28;20093;-84
2023/08/07 10:50:53;;;;;;;2.85;1.58;;;;;;;25.17;33.91;94306.31;5111440;28;20031;-83
2023/08/07 10:53:35;;;;;;;2.35;1.30;;;;;;;25.39;34.55;94308.44;5112403;28;20125;-85
2023/08/07 10:56:04;;;;;;;1.75;1.27;;;;;;;25.50;35.40;94314.78;5111136;28;20055;-84
2023/08/07 10:58:32;;;;;;;1.80;1.30;;;;;;;25.58;35.91;94301.94;5111695;28;20031;-85
2023/08/07 11:01:19;;;;;;;1.83;1.30;;;;;;;25.82;35.89;94302.72;5111702;28;20376;-84
2023/08/07 11:03:48;;;;;;;2.05;1.23;;;;;;;25.44;33.91;94278.50;5111139;28;20501;-86
2023/08/07 11:06:13;;;;;;;2.10;1.08;;;;;;;25.58;34.78;94299.28;5111542;28;20036;-86
2023/08/07 11:08:40;;;;;;;2.10;1.50;;;;;;;25.74;34.85;94283.66;5111158;28;20026;-84
2023/08/07 11:11:05;;;;;;;2.63;1.20;;;;;;;25.72;35.13;94296.41;5111505;28;20031;-85
2023/08/07 11:13:31;;;;;;;3.10;1.20;;;;;;;25.64;34.70;94285.06;5111024;28;20047;-86
2023/08/07 11:15:57;;;;;;;3.72;1.40;;;;;;;24.88;34.51;94275.31;5111270;28;20220;-84
2023/08/07 11:18:22;;;;;;;2.65;1.60;;;;;;;25.13;34.96;94272.44;5110940;28;20036;-85
2023/08/07 11:20:48;;;;;;;2.42;1.40;;;;;;;25.13;34.92;94265.28;5110835;28;20046;-86
2023/08/07 11:23:13;;;;;;;2.35;1.25;;;;;;;25.32;34.19;94268.66;5110805;28;20103;-85
2023/08/07 11:25:38;;;;;;;2.13;1.20;;;;;;;25.36;35.52;94264.50;5110899;28;20062;-86
2023/08/07 11:28:04;;;;;;;5.30;1.30;;;;;;;25.56;35.22;94269.47;5110616;28;20043;-85
2023/08/07 11:30:29;;;;;;;3.65;1.30;;;;;;;25.36;34.80;94256.53;5110794;28;20032;-85